Saturday, December 16, 2017, 9:12 PM EST
Back to Local

KMTP, Montauk Airport

Location: Montauk, NY, United States Lat: 41.067
Local Time: 9:12 PM EST ( 2:12 GMT) Lon: -71.917
Time Zone: US/Eastern Elev: 6 ft

Show me the last for .
Show Decoded

2017-12-16 19:54 METAR KMTP 170054Z AUTO 31014G19KT 03/M04 A3011 RMK AO1 SLP195 T00281044 =
2017-12-16 18:54 METAR KMTP 162354Z AUTO 30012G22KT 03/M03 A3008 RMK AO1 SLP186 T00331033 10039
                 20028 53034 =
2017-12-16 17:54 METAR KMTP 162254Z AUTO 28013G22KT 04/M03 A3004 RMK AO1 PK WND 29026/2201 SLP171
                 T00391028 =
2017-12-16 16:54 METAR KMTP 162154Z AUTO 28013G20KT 04/M02 A3001 RMK AO1 SLP161 T00391022 =
2017-12-16 15:54 METAR KMTP 162054Z AUTO 28011G22KT 04/M03 A2998 RMK AO1 SLP153 T00391028 53005 =
2017-12-16 14:54 METAR KMTP 161954Z AUTO 27012G22KT 04/M03 A2997 RMK AO1 SLP148 T00391033 =
2017-12-16 13:54 METAR KMTP 161854Z AUTO 27015G27KT 03/M04 A2995 RMK AO1 PK WND 28027/1849 SLP142
                 T00331044 =
2017-12-16 12:54 METAR KMTP 161754Z AUTO 28014G24KT 03/M04 A2997 RMK AO1 PK WND 26026/1723 SLP148
                 T00281044 10033 20000 58018 =
2017-12-16 11:54 METAR KMTP 161654Z AUTO 26013G24KT 03/M04 A2999 RMK AO1 PK WND 25026/1607 SLP155
                 T00281044 =
2017-12-16 10:54 METAR KMTP 161554Z AUTO 25013G24KT 02/M04 A3001 RMK AO1 PK WND 27028/1542 SLP162
                 T00221044 =
2017-12-16 09:54 METAR KMTP 161454Z AUTO 26012G23KT 02/M05 A3002 RMK AO1 SLP166 T00171050 51025 =
2017-12-16 08:54 METAR KMTP 161354Z AUTO 26011G17KT 01/M04 A3000 RMK AO1 SLP158 T00061044 =
2017-12-16 07:54 METAR KMTP 161254Z AUTO 29013G22KT 01/M06 A2997 RMK AO1 PK WND 29026/1219 SLP150
                 T00061056 =
2017-12-16 06:54 METAR KMTP 161154Z AUTO 28016G24KT 01/M06 A2995 RMK AO1 PK WND 27028/1144 SLP141
                 70016 T00061056 10006 21011 51017 =
2017-12-16 05:54 METAR KMTP 161054Z AUTO 29013G22KT 00/M05 A2995 RMK AO1 SLP140 T00001050 =
2017-12-16 04:54 METAR KMTP 160954Z AUTO 28015G21KT M01/M06 A2992 RMK AO1 SLP130 T10061056 =
2017-12-16 03:54 METAR KMTP 160854Z AUTO 28012G21KT M01/M06 A2990 RMK AO1 PK WND 28026/0801
                 SLP124 T10061056 51021 =
2017-12-16 02:54 METAR KMTP 160754Z AUTO 28015G25KT M01/M06 A2988 RMK AO1 PK WND 28026/0735
                 SLP119 T10111056 =
2017-12-16 01:54 METAR KMTP 160654Z AUTO 29012G23KT M01/M06 A2986 RMK AO1 PK WND 27028/0557
                 SLP112 T10111056 =
2017-12-16 00:54 METAR KMTP 160554Z AUTO 29013G21KT M01/M06 A2984 RMK AO1 SLP104 60009 T10111056
                 10006 21011 55006 =
2017-12-15 23:54 METAR KMTP 160454Z AUTO 29013G21KT 00/M03 A2983 RMK AO1 SLP102 T00001028
                 400061039 =
2017-12-15 22:54 METAR KMTP 160354Z AUTO 31009G16KT M01/M02 A2986 RMK AO1 SLP111 P0002 T10111022
                 =
2017-12-15 21:54 METAR KMTP 160254Z AUTO 31007KT 01/M01 A2986 RMK AO1 SLP110 P0002 60007
                 T00061011 55012 =

Support USWX by starting your Amazon purchase here.